Time;durP1;ratioP1;P1;durP2;ratioP2;P2;SDS_P1;SDS_P2;PMS_P1;PMS_P2;Temp;Humidity;BMP_temperature;BMP_pressure;BME280_temperature;BME280_humidity;BME280_pressure;Samples;Min_cycle;Max_cycle;Signal;HPM_P1;HPM_P2
2023/01/23 00:02:24;;;;;;;;;;;;;;;;;;5035092;28;837;-66
2023/01/23 00:04:50;;;;;;;;;;;;;;;;;;5034611;28;1224;-66
2023/01/23 00:07:15;;;;;;;;;;;;;;;;;;5017613;28;1225;-65
2023/01/23 00:09:40;;;;;;;;;;;;;;;;;;5033601;28;1973;-65
2023/01/23 00:12:06;;;;;;;;;;;;;;;;;;5033830;28;1494;-66
2023/01/23 00:14:31;;;;;;;;;;;;;;;;;;5034546;28;1062;-66
2023/01/23 00:16:56;;;;;;;;;;;;;;;;;;5016901;28;1314;-66
2023/01/23 00:19:22;;;;;;;;;;;;;;;;;;5032529;28;1315;-66
2023/01/23 00:21:47;;;;;;;;;;;;;;;;;;5030966;28;1288;-66
2023/01/23 00:24:12;;;;;;;;;;;;;;;;;;5029221;28;1233;-66
2023/01/23 00:26:37;;;;;;;;;;;;;;;;;;5034274;28;1200;-66
2023/01/23 00:29:03;;;;;;;;;;;;;;;;;;5032276;28;1914;-66
2023/01/23 00:31:30;;;;;;;;;;;;;;;;;;5034627;28;829;-66
2023/01/23 00:33:57;;;;;;;;;;;;;;;;;;5033505;28;1208;-65
2023/01/23 00:36:22;;;;;;;;;;;;;;;;;;5033158;28;1119;-66
2023/01/23 00:38:48;;;;;;;;;;;;;;;;;;5033678;28;1231;-66
2023/01/23 00:41:13;;;;;;;;;;;;;;;;;;5016128;28;1188;-66
2023/01/23 00:43:39;;;;;;;;;;;;;;;;;;5033833;28;884;-65
2023/01/23 00:46:04;;;;;;;;;;;;;;;;;;5032615;28;1243;-66
2023/01/23 00:48:29;;;;;;;;;;;;;;;;;;5032004;28;1945;-66
2023/01/23 00:50:55;;;;;;;;;;;;;;;;;;5032278;28;1386;-66
2023/01/23 00:53:20;;;;;;;;;;;;;;;;;;5033989;28;880;-66
2023/01/23 00:55:45;;;;;;;;;;;;;;;;;;5032207;28;1319;-68
2023/01/23 00:58:11;;;;;;;;;;;;;;;;;;5015507;28;1181;-66
2023/01/23 01:00:37;;;;;;;;;;;;;;;;;;5033425;28;937;-66
2023/01/23 01:03:02;;;;;;;;;;;;;;;;;;5031866;28;1405;-68
2023/01/23 01:05:27;;;;;;;;;;;;;;;;;;5015476;28;1181;-65
2023/01/23 01:07:52;;;;;;;;;;;;;;;;;;5031969;28;1965;-67
2023/01/23 01:10:18;;;;;;;;;;;;;;;;;;5032084;28;1205;-67
2023/01/23 01:12:43;;;;;;;;;;;;;;;;;;5033164;28;813;-68
2023/01/23 01:15:09;;;;;;;;;;;;;;;;;;5031662;28;1425;-68
2023/01/23 01:17:35;;;;;;;;;;;;;;;;;;5031704;28;995;-68
2023/01/23 01:20:00;;;;;;;;;;;;;;;;;;5033090;28;963;-68
2023/01/23 01:22:25;;;;;;;;;;;;;;;;;;5031503;28;1189;-68
2023/01/23 01:24:51;;;;;;;;;;;;;;;;;;5015460;28;1291;-68
2023/01/23 01:27:17;;;;;;;;;;;;;;;;;;5015106;28;1275;-68
2023/01/23 01:29:42;;;;;;;;;;;;;;;;;;5031462;28;1985;-67
2023/01/23 01:32:07;;;;;;;;;;;;;;;;;;5015311;28;1188;-68
2023/01/23 01:34:32;;;;;;;;;;;;;;;;;;5031544;28;1129;-68
2023/01/23 01:36:58;;;;;;;;;;;;;;;;;;5032855;28;959;-67
2023/01/23 01:39:23;;;;;;;;;;;;;;;;;;5031480;28;857;-67
2023/01/23 01:41:48;;;;;;;;;;;;;;;;;;5032372;28;914;-68
2023/01/23 01:44:18;;;;;;;;;;;;;;;;;;5031320;28;1286;-68
2023/01/23 01:46:44;;;;;;;;;;;;;;;;;;5031872;28;1271;-68
2023/01/23 01:49:12;;;;;;;;;;;;;;;;;;5032770;28;1979;-68
2023/01/23 01:51:44;;;;;;;;;;;;;;;;;;5032231;28;817;-68
2023/01/23 01:54:14;;;;;;;;;;;;;;;;;;5033170;28;897;-68
2023/01/23 01:56:43;;;;;;;;;;;;;;;;;;5032001;28;1017;-68
2023/01/23 01:59:10;;;;;;;;;;;;;;;;;;5033236;28;838;-68
2023/01/23 02:01:36;;;;;;;;;;;;;;;;;;5032263;28;900;-68
2023/01/23 02:04:01;;;;;;;;;;;;;;;;;;5031755;28;1436;-68
2023/01/23 02:06:27;;;;;;;;;;;;;;;;;;5031445;28;888;-68
2023/01/23 02:08:58;;;;;;;;;;;;;;;;;;5032106;28;1967;-68
2023/01/23 02:11:23;;;;;;;;;;;;;;;;;;5030839;28;1354;-68
2023/01/23 02:13:48;;;;;;;;;;;;;;;;;;5032229;28;1201;-68
2023/01/23 02:16:17;;;;;;;;;;;;;;;;;;5030937;28;1307;-68
2023/01/23 02:18:46;;;;;;;;;;;;;;;;;;5032221;28;848;-68
2023/01/23 02:21:12;;;;;;;;;;;;;;;;;;5032072;28;833;-68
2023/01/23 02:23:38;;;;;;;;;;;;;;;;;;5031736;28;841;-67
2023/01/23 02:26:05;;;;;;;;;;;;;;;;;;5030671;28;1386;-68
2023/01/23 02:28:36;;;;;;;;;;;;;;;;;;5030232;28;1956;-68
2023/01/23 02:31:02;;;;;;;;;;;;;;;;;;5031475;28;822;-68
2023/01/23 02:33:27;;;;;;;;;;;;;;;;;;5031589;28;817;-68
2023/01/23 02:35:53;;;;;;;;;;;;;;;;;;5031438;28;1042;-68
2023/01/23 02:38:21;;;;;;;;;;;;;;;;;;5031742;28;947;-68
2023/01/23 02:40:47;;;;;;;;;;;;;;;;;;5030277;28;1083;-68
2023/01/23 02:43:15;;;;;;;;;;;;;;;;;;5030549;28;973;-68
2023/01/23 02:45:40;;;;;;;;;;;;;;;;;;5031013;28;896;-68
2023/01/23 02:48:06;;;;;;;;;;;;;;;;;;5031620;28;1890;-68
2023/01/23 02:50:32;;;;;;;;;;;;;;;;;;5031677;28;904;-68
2023/01/23 02:52:57;;;;;;;;;;;;;;;;;;5030303;28;959;-68
2023/01/23 02:55:31;;;;;;;;;;;;;;;;;;5013403;28;1319;-68
2023/01/23 03:00:14;;;;;;;;;;;;;;;;;;5031426;28;856;-68
2023/01/23 03:00:42;;;;;;;;;;;;;;;;;;5030692;28;825;-68
2023/01/23 03:03:08;;;;;;;;;;;;;;;;;;5031379;28;1046;-68
2023/01/23 03:05:33;;;;;;;;;;;;;;;;;;5013617;28;1336;-68
2023/01/23 03:07:58;;;;;;;;;;;;;;;;;;5031382;28;1965;-68
2023/01/23 03:10:24;;;;;;;;;;;;;;;;;;5030029;28;1058;-68
2023/01/23 03:12:50;;;;;;;;;;;;;;;;;;5013613;28;1204;-68
2023/01/23 03:15:15;;;;;;;;;;;;;;;;;;5032299;28;1071;-68
2023/01/23 03:17:40;;;;;;;;;;;;;;;;;;5030294;28;1227;-68
2023/01/23 03:20:06;;;;;;;;;;;;;;;;;;5014197;28;1466;-68
2023/01/23 03:22:31;;;;;;;;;;;;;;;;;;5031541;28;931;-66
2023/01/23 03:24:57;;;;;;;;;;;;;;;;;;5031759;28;916;-66
2023/01/23 03:27:23;;;;;;;;;;;;;;;;;;5031795;28;895;-66
2023/01/23 03:32:31;;;;;;;;;;;;;;;;;;5030570;28;861;-67
2023/01/23 03:34:58;;;;;;;;;;;;;;;;;;5029626;28;1208;-67
2023/01/23 03:37:23;;;;;;;;;;;;;;;;;;5031536;28;877;-67
2023/01/23 03:42:33;;;;;;;;;;;;;;;;;;5031174;28;927;-66
2023/01/23 03:44:58;;;;;;;;;;;;;;;;;;5029616;28;1192;-67
2023/01/23 03:47:25;;;;;;;;;;;;;;;;;;5013411;28;1320;-68
2023/01/23 03:49:50;;;;;;;;;;;;;;;;;;5029707;28;1902;-68
2023/01/23 03:52:15;;;;;;;;;;;;;;;;;;5013450;28;1200;-67
2023/01/23 03:54:41;;;;;;;;;;;;;;;;;;5029259;28;1255;-68
2023/01/23 03:57:06;;;;;;;;;;;;;;;;;;5029805;28;1227;-68
2023/01/23 03:59:31;;;;;;;;;;;;;;;;;;5029769;28;845;-68
2023/01/23 04:01:57;;;;;;;;;;;;;;;;;;5029632;28;912;-68
2023/01/23 04:04:22;;;;;;;;;;;;;;;;;;5033168;28;861;-68
2023/01/23 04:06:47;;;;;;;;;;;;;;;;;;5034727;28;1110;-68
2023/01/23 04:09:13;;;;;;;;;;;;;;;;;;5033452;28;1879;-68
2023/01/23 04:11:38;;;;;;;;;;;;;;;;;;5016664;28;1216;-68
2023/01/23 04:14:03;;;;;;;;;;;;;;;;;;5033156;28;1357;-68
2023/01/23 04:16:28;;;;;;;;;;;;;;;;;;5033440;28;881;-68
2023/01/23 04:18:54;;;;;;;;;;;;;;;;;;5033618;28;786;-68
2023/01/23 04:21:19;;;;;;;;;;;;;;;;;;5034396;28;813;-66
2023/01/23 04:23:45;;;;;;;;;;;;;;;;;;5033929;28;899;-68
2023/01/23 04:26:10;;;;;;;;;;;;;;;;;;5032636;28;1322;-68
2023/01/23 04:28:36;;;;;;;;;;;;;;;;;;5034105;28;1974;-67
2023/01/23 04:31:01;;;;;;;;;;;;;;;;;;5033915;28;1217;-67
2023/01/23 04:33:26;;;;;;;;;;;;;;;;;;5034133;28;837;-67
2023/01/23 04:35:53;;;;;;;;;;;;;;;;;;5032720;28;959;-67
2023/01/23 04:38:19;;;;;;;;;;;;;;;;;;5034946;28;837;-67
2023/01/23 04:40:44;;;;;;;;;;;;;;;;;;5034165;28;991;-67
2023/01/23 04:43:10;;;;;;;;;;;;;;;;;;5034838;28;911;-67
2023/01/23 04:45:35;;;;;;;;;;;;;;;;;;5033852;28;884;-67
2023/01/23 04:48:01;;;;;;;;;;;;;;;;;;5016231;28;1902;-67
2023/01/23 04:50:26;;;;;;;;;;;;;;;;;;5016467;28;1283;-67
2023/01/23 04:52:51;;;;;;;;;;;;;;;;;;5016181;28;1335;-67
2023/01/23 04:55:17;;;;;;;;;;;;;;;;;;5034380;28;916;-67
2023/01/23 04:57:42;;;;;;;;;;;;;;;;;;5031864;28;1286;-67
2023/01/23 05:00:08;;;;;;;;;;;;;;;;;;5032533;28;1222;-66
2023/01/23 05:02:34;;;;;;;;;;;;;;;;;;5031944;28;1224;-66
2023/01/23 05:04:59;;;;;;;;;;;;;;;;;;5031436;28;1654;-67
2023/01/23 05:07:25;;;;;;;;;;;;;;;;;;5031987;28;1007;-67
2023/01/23 05:09:50;;;;;;;;;;;;;;;;;;5031758;28;1918;-66
2023/01/23 05:12:15;;;;;;;;;;;;;;;;;;5031952;28;1257;-66
2023/01/23 05:14:40;;;;;;;;;;;;;;;;;;5032646;28;1063;-66
2023/01/23 05:17:06;;;;;;;;;;;;;;;;;;5014930;28;1315;-67
2023/01/23 05:19:31;;;;;;;;;;;;;;;;;;5032323;28;1407;-67
2023/01/23 05:21:56;;;;;;;;;;;;;;;;;;5015290;28;1227;-66
2023/01/23 05:24:21;;;;;;;;;;;;;;;;;;5032149;28;813;-66
2023/01/23 05:26:47;;;;;;;;;;;;;;;;;;5032910;28;861;-67
2023/01/23 05:29:12;;;;;;;;;;;;;;;;;;5032926;28;1914;-67
2023/01/23 05:31:37;;;;;;;;;;;;;;;;;;5032917;28;931;-65
2023/01/23 05:34:02;;;;;;;;;;;;;;;;;;5032026;28;963;-66
2023/01/23 05:36:28;;;;;;;;;;;;;;;;;;5032088;28;947;-66
2023/01/23 05:38:53;;;;;;;;;;;;;;;;;;5015156;28;1315;-66
2023/01/23 05:41:19;;;;;;;;;;;;;;;;;;5031605;28;1187;-66
2023/01/23 05:43:44;;;;;;;;;;;;;;;;;;5031000;28;829;-66
2023/01/23 05:46:09;;;;;;;;;;;;;;;;;;5033050;28;896;-66
2023/01/23 05:48:34;;;;;;;;;;;;;;;;;;5032428;28;1910;-66
2023/01/23 05:51:03;;;;;;;;;;;;;;;;;;5031110;28;1309;-66
2023/01/23 05:53:29;;;;;;;;;;;;;;;;;;5031773;28;1326;-66
2023/01/23 05:55:54;;;;;;;;;;;;;;;;;;5030722;28;1311;-66
2023/01/23 05:58:19;;;;;;;;;;;;;;;;;;5031259;28;1000;-68
2023/01/23 06:00:44;;;;;;;;;;;;;;;;;;5030610;28;1176;-68
2023/01/23 06:03:10;;;;;;;;;;;;;;;;;;5031099;28;1207;-68
2023/01/23 06:05:35;;;;;;;;;;;;;;;;;;5014572;28;1205;-68
2023/01/23 06:08:00;;;;;;;;;;;;;;;;;;5013939;28;1961;-67
2023/01/23 06:10:25;;;;;;;;;;;;;;;;;;5031131;28;1295;-68
2023/01/23 06:12:51;;;;;;;;;;;;;;;;;;5031905;28;834;-67
2023/01/23 06:15:17;;;;;;;;;;;;;;;;;;5014974;28;1252;-68
2023/01/23 06:17:42;;;;;;;;;;;;;;;;;;5032210;28;951;-67
2023/01/23 06:20:08;;;;;;;;;;;;;;;;;;5014879;28;1216;-67
2023/01/23 06:22:33;;;;;;;;;;;;;;;;;;5032912;28;947;-67
2023/01/23 06:24:58;;;;;;;;;;;;;;;;;;5032442;28;923;-68
2023/01/23 06:27:23;;;;;;;;;;;;;;;;;;5031152;28;1158;-67
2023/01/23 06:29:49;;;;;;;;;;;;;;;;;;5031791;28;1977;-67
2023/01/23 06:32:14;;;;;;;;;;;;;;;;;;5031213;28;983;-67
2023/01/23 06:34:39;;;;;;;;;;;;;;;;;;5030780;28;1344;-67
2023/01/23 06:37:05;;;;;;;;;;;;;;;;;;5031351;28;802;-68
2023/01/23 06:39:30;;;;;;;;;;;;;;;;;;5031955;28;821;-68
2023/01/23 06:41:56;;;;;;;;;;;;;;;;;;5014128;28;1298;-66
2023/01/23 06:44:21;;;;;;;;;;;;;;;;;;5032204;28;825;-67
2023/01/23 06:46:47;;;;;;;;;;;;;;;;;;5031601;28;872;-68
2023/01/23 06:49:12;;;;;;;;;;;;;;;;;;5031823;28;1928;-68
2023/01/23 06:51:37;;;;;;;;;;;;;;;;;;5030751;28;1176;-67
2023/01/23 06:54:03;;;;;;;;;;;;;;;;;;5029958;28;1532;-67
2023/01/23 06:56:28;;;;;;;;;;;;;;;;;;5013841;28;1111;-67
2023/01/23 06:58:53;;;;;;;;;;;;;;;;;;5030151;28;924;-66
2023/01/23 07:01:19;;;;;;;;;;;;;;;;;;5014123;28;1252;-67
2023/01/23 07:03:44;;;;;;;;;;;;;;;;;;5031378;28;856;-68
2023/01/23 07:06:11;;;;;;;;;;;;;;;;;;5031850;28;951;-68
2023/01/23 07:08:36;;;;;;;;;;;;;;;;;;5030369;28;1903;-68
2023/01/23 07:11:02;;;;;;;;;;;;;;;;;;5029870;28;1362;-68
2023/01/23 07:13:27;;;;;;;;;;;;;;;;;;5031007;28;1205;-68
2023/01/23 07:15:52;;;;;;;;;;;;;;;;;;5029971;28;1354;-68
2023/01/23 07:18:18;;;;;;;;;;;;;;;;;;5031989;28;963;-68
2023/01/23 07:20:43;;;;;;;;;;;;;;;;;;5031348;28;971;-68
2023/01/23 07:23:09;;;;;;;;;;;;;;;;;;5028103;28;1321;-68
2023/01/23 07:25:34;;;;;;;;;;;;;;;;;;5011384;28;1185;-68
2023/01/23 07:28:00;;;;;;;;;;;;;;;;;;5029193;28;1902;-68
2023/01/23 07:30:25;;;;;;;;;;;;;;;;;;5030313;28;1380;-68
2023/01/23 07:32:50;;;;;;;;;;;;;;;;;;5014178;28;1390;-68
2023/01/23 07:35:16;;;;;;;;;;;;;;;;;;5030683;28;1208;-68
2023/01/23 07:37:41;;;;;;;;;;;;;;;;;;5014104;28;1276;-68
2023/01/23 07:40:07;;;;;;;;;;;;;;;;;;5016848;28;1327;-68
2023/01/23 07:42:32;;;;;;;;;;;;;;;;;;5035503;28;963;-68
2023/01/23 07:44:57;;;;;;;;;;;;;;;;;;5033916;28;1214;-68
2023/01/23 07:47:22;;;;;;;;;;;;;;;;;;5033003;28;1319;-68
2023/01/23 07:49:48;;;;;;;;;;;;;;;;;;5033663;28;1966;-68
2023/01/23 07:52:13;;;;;;;;;;;;;;;;;;5033857;28;1299;-68
2023/01/23 07:54:39;;;;;;;;;;;;;;;;;;5034989;28;971;-68
2023/01/23 07:57:04;;;;;;;;;;;;;;;;;;5034283;28;877;-68
2023/01/23 07:59:30;;;;;;;;;;;;;;;;;;5033789;28;947;-68
2023/01/23 08:01:55;;;;;;;;;;;;;;;;;;5032139;28;861;-67
2023/01/23 08:04:20;;;;;;;;;;;;;;;;;;5033730;28;822;-67
2023/01/23 08:06:45;;;;;;;;;;;;;;;;;;5016791;28;1307;-67
2023/01/23 08:09:11;;;;;;;;;;;;;;;;;;5034202;28;1957;-67
2023/01/23 08:11:37;;;;;;;;;;;;;;;;;;5032910;28;1465;-67
2023/01/23 08:14:02;;;;;;;;;;;;;;;;;;5033700;28;1122;-67
2023/01/23 08:16:27;;;;;;;;;;;;;;;;;;5033634;28;944;-67
2023/01/23 08:18:53;;;;;;;;;;;;;;;;;;5034164;28;809;-72
2023/01/23 08:21:18;;;;;;;;;;;;;;;;;;5034760;28;892;-68
2023/01/23 08:23:45;;;;;;;;;;;;;;;;;;5033875;28;988;-67
2023/01/23 08:26:13;;;;;;;;;;;;;;;;;;5032758;28;1183;-67
2023/01/23 08:28:38;;;;;;;;;;;;;;;;;;5034254;28;1910;-69
2023/01/23 08:31:06;;;;;;;;;;;;;;;;;;5034452;28;920;-67
2023/01/23 08:33:32;;;;;;;;;;;;;;;;;;5033840;28;853;-67
2023/01/23 08:35:58;;;;;;;;;;;;;;;;;;5032288;28;1359;-67
2023/01/23 08:38:23;;;;;;;;;;;;;;;;;;5033199;28;1393;-68
2023/01/23 08:40:50;;;;;;;;;;;;;;;;;;5032071;28;1330;-68
2023/01/23 08:43:16;;;;;;;;;;;;;;;;;;5033317;28;1100;-67
2023/01/23 08:45:46;;;;;;;;;;;;;;;;;;5032481;28;825;-67
2023/01/23 08:48:11;;;;;;;;;;;;;;;;;;5033727;28;1890;-67
2023/01/23 08:50:37;;;;;;;;;;;;;;;;;;5032143;28;821;-67
2023/01/23 08:53:02;;;;;;;;;;;;;;;;;;5032517;28;814;-67
2023/01/23 08:55:27;;;;;;;;;;;;;;;;;;5034240;28;904;-67
2023/01/23 08:57:53;;;;;;;;;;;;;;;;;;5015768;28;1244;-67
2023/01/23 09:00:19;;;;;;;;;;;;;;;;;;5032894;28;817;-67
2023/01/23 09:02:44;;;;;;;;;;;;;;;;;;5033617;28;889;-68
2023/01/23 09:05:09;;;;;;;;;;;;;;;;;;5032297;28;872;-67
2023/01/23 09:07:38;;;;;;;;;;;;;;;;;;5015914;28;1200;-67
2023/01/23 09:10:04;;;;;;;;;;;;;;;;;;5032838;28;1898;-67
2023/01/23 09:12:30;;;;;;;;;;;;;;;;;;5033895;28;845;-67
2023/01/23 09:14:55;;;;;;;;;;;;;;;;;;5032170;28;1251;-67
2023/01/23 09:17:20;;;;;;;;;;;;;;;;;;5015836;28;1208;-67
2023/01/23 09:19:46;;;;;;;;;;;;;;;;;;5033506;28;899;-67
2023/01/23 09:22:11;;;;;;;;;;;;;;;;;;5033499;28;896;-67
2023/01/23 09:24:36;;;;;;;;;;;;;;;;;;5015673;28;1327;-67
2023/01/23 09:27:02;;;;;;;;;;;;;;;;;;5031867;28;1172;-66
2023/01/23 09:29:27;;;;;;;;;;;;;;;;;;5033741;28;1921;-66
2023/01/23 09:31:52;;;;;;;;;;;;;;;;;;5032100;28;885;-66
2023/01/23 09:34:18;;;;;;;;;;;;;;;;;;5015443;28;1220;-66
2023/01/23 09:36:43;;;;;;;;;;;;;;;;;;5015408;28;1354;-66
2023/01/23 09:39:08;;;;;;;;;;;;;;;;;;5031340;28;1314;-66
2023/01/23 09:41:34;;;;;;;;;;;;;;;;;;5014827;28;1201;-66
2023/01/23 09:44:01;;;;;;;;;;;;;;;;;;5014641;28;1227;-66
2023/01/23 09:46:27;;;;;;;;;;;;;;;;;;5031386;28;1354;-66
2023/01/23 09:49:00;;;;;;;;;;;;;;;;;;5032343;28;1902;-66
2023/01/23 09:51:38;;;;;;;;;;;;;;;;;;5029818;28;1208;-66
2023/01/23 09:54:14;;;;;;;;;;;;;;;;;;5027128;28;1138;-66
2023/01/23 09:56:43;;;;;;;;;;;;;;;;;;5030841;28;1208;-66
2023/01/23 09:59:21;;;;;;;;;;;;;;;;;;5032382;28;813;-66
2023/01/23 10:01:46;;;;;;;;;;;;;;;;;;5031083;28;1221;-66
2023/01/23 10:04:19;;;;;;;;;;;;;;;;;;5030973;28;1276;-66
2023/01/23 10:06:55;;;;;;;;;;;;;;;;;;5032724;28;880;-66
2023/01/23 10:09:23;;;;;;;;;;;;;;;;;;5032268;28;1906;-66
2023/01/23 10:11:54;;;;;;;;;;;;;;;;;;5031002;28;1268;-66
2023/01/23 10:14:34;;;;;;;;;;;;;;;;;;5031473;28;1237;-66
2023/01/23 10:17:00;;;;;;;;;;;;;;;;;;5031095;28;1234;-68
2023/01/23 10:19:41;;;;;;;;;;;;;;;;;;5030963;28;1315;-69
2023/01/23 10:22:17;;;;;;;;;;;;;;;;;;5030403;28;1541;-66
2023/01/23 10:24:48;;;;;;;;;;;;;;;;;;5032317;28;832;-66
2023/01/23 10:27:17;;;;;;;;;;;;;;;;;;5032220;28;841;-67
2023/01/23 10:29:44;;;;;;;;;;;;;;;;;;5032178;28;1910;-68
2023/01/23 10:32:38;;;;;;;;;;;;;;;;;;5030661;28;1280;-68
2023/01/23 10:35:19;;;;;;;;;;;;;;;;;;5017617;28;1287;-68
2023/01/23 10:37:44;;;;;;;;;;;;;;;;;;5030597;28;1106;-68
2023/01/23 10:41:12;;;;;;;;;;;;;;;;;;5031479;28;805;-69
2023/01/23 10:43:03;;;;;;;;;;;;;;;;;;5032410;28;972;-69
2023/01/23 10:45:29;;;;;;;;;;;;;;;;;;5030904;28;1248;-67
2023/01/23 10:47:54;;;;;;;;;;;;;;;;;;5028985;28;1399;-67
2023/01/23 10:50:32;;;;;;;;;;;;;;;;;;5030859;28;1890;-67
2023/01/23 10:53:05;;;;;;;;;;;;;;;;;;5030776;28;1271;-67
2023/01/23 10:55:30;;;;;;;;;;;;;;;;;;5031033;28;1180;-66
2023/01/23 10:57:57;;;;;;;;;;;;;;;;;;5030796;28;960;-68
2023/01/23 11:00:25;;;;;;;;;;;;;;;;;;5032068;28;834;-67
2023/01/23 11:02:50;;;;;;;;;;;;;;;;;;5032249;28;830;-67
2023/01/23 11:05:35;;;;;;;;;;;;;;;;;;5014516;28;1471;-67
2023/01/23 11:08:00;;;;;;;;;;;;;;;;;;5031083;28;1011;-67
2023/01/23 11:10:25;;;;;;;;;;;;;;;;;;5013487;28;1961;-67
2023/01/23 11:12:55;;;;;;;;;;;;;;;;;;5030081;28;1314;-67
2023/01/23 11:15:22;;;;;;;;;;;;;;;;;;5033347;28;1330;-67
2023/01/23 11:17:48;;;;;;;;;;;;;;;;;;5035379;28;1161;-67
2023/01/23 11:20:25;;;;;;;;;;;;;;;;;;5035380;28;782;-67
2023/01/23 11:23:01;;;;;;;;;;;;;;;;;;5035584;28;747;-67
2023/01/23 11:25:31;;;;;;;;;;;;;;;;;;5035096;28;903;-67
2023/01/23 11:27:58;;;;;;;;;;;;;;;;;;5035139;28;845;-67
2023/01/23 11:30:42;;;;;;;;;;;;;;;;;;5033498;28;1977;-66
2023/01/23 11:33:12;;;;;;;;;;;;;;;;;;5034146;28;1325;-67
2023/01/23 11:35:46;;;;;;;;;;;;;;;;;;5034082;28;1199;-67
2023/01/23 11:38:14;;;;;;;;;;;;;;;;;;5033455;28;1137;-67
2023/01/23 11:40:39;;;;;;;;;;;;;;;;;;5034960;28;809;-67
2023/01/23 11:43:11;;;;;;;;;;;;;;;;;;5033704;28;1080;-67
2023/01/23 11:45:52;;;;;;;;;;;;;;;;;;5035172;28;1166;-67
2023/01/23 11:48:24;;;;;;;;;;;;;;;;;;5034707;28;2295;-67
2023/01/23 11:50:53;;;;;;;;;;;;;;;;;;5033461;28;1124;-67
2023/01/23 11:53:21;;;;;;;;;;;;;;;;;;5034669;28;825;-67
2023/01/23 11:55:50;;;;;;;;;;;;;;;;;;5033725;28;1203;-68
2023/01/23 11:58:39;;;;;;;;;;;;;;;;;;5033195;28;1278;-67
2023/01/23 12:01:10;;;;;;;;;;;;;;;;;;5034433;28;888;-68
2023/01/23 12:03:53;;;;;;;;;;;;;;;;;;5034496;28;940;-68
2023/01/23 12:06:25;;;;;;;;;;;;;;;;;;5034541;28;983;-67
2023/01/23 12:08:51;;;;;;;;;;;;;;;;;;5032743;28;1969;-68
2023/01/23 12:11:19;;;;;;;;;;;;;;;;;;5032048;28;1073;-67
2023/01/23 12:14:03;;;;;;;;;;;;;;;;;;5033443;28;1267;-68
2023/01/23 12:16:36;;;;;;;;;;;;;;;;;;5034225;28;1161;-68
2023/01/23 12:19:12;;;;;;;;;;;;;;;;;;5031716;28;1338;-68
2023/01/23 12:21:37;;;;;;;;;;;;;;;;;;5032978;28;1390;-68
2023/01/23 12:24:21;;;;;;;;;;;;;;;;;;5034584;28;910;-67
2023/01/23 12:26:58;;;;;;;;;;;;;;;;;;5034893;28;834;-67
2023/01/23 12:29:27;;;;;;;;;;;;;;;;;;5033241;28;1914;-67
2023/01/23 12:32:01;;;;;;;;;;;;;;;;;;5032904;28;1259;-67
2023/01/23 12:34:38;;;;;;;;;;;;;;;;;;5033384;28;1131;-67
2023/01/23 12:37:11;;;;;;;;;;;;;;;;;;5034012;28;794;-68
2023/01/23 12:39:39;;;;;;;;;;;;;;;;;;5032850;28;1235;-67
2023/01/23 12:42:10;;;;;;;;;;;;;;;;;;5033678;28;1046;-67
2023/01/23 12:44:40;;;;;;;;;;;;;;;;;;5032482;28;1279;-67
2023/01/23 12:47:09;;;;;;;;;;;;;;;;;;5032880;28;1203;-66
2023/01/23 12:50:01;;;;;;;;;;;;;;;;;;5033476;28;1967;-67
2023/01/23 12:52:29;;;;;;;;;;;;;;;;;;5017618;28;1189;-67
2023/01/23 12:55:06;;;;;;;;;;;;;;;;;;5032334;28;1211;-67
2023/01/23 12:57:50;;;;;;;;;;;;;;;;;;5032353;28;1251;-67
2023/01/23 13:00:28;;;;;;;;;;;;;;;;;;5033723;28;904;-67
2023/01/23 13:02:56;;;;;;;;;;;;;;;;;;5032197;28;1243;-67
2023/01/23 13:05:48;;;;;;;;;;;;;;;;;;5032313;28;1315;-67
2023/01/23 13:08:19;;;;;;;;;;;;;;;;;;5031212;28;1903;-67
2023/01/23 13:13:47;;;;;;;;;;;;;;;;;;5033790;28;1194;-67
2023/01/23 13:16:14;;;;;;;;;;;;;;;;;;5032283;28;1358;-67
2023/01/23 13:27:34;;;;;;;;;;;;;;;;;;5032920;28;678;-67
2023/01/23 13:30:01;;;;;;;;;;;;;;;;;;5033074;28;1976;-67
2023/01/23 13:32:29;;;;;;;;;;;;;;;;;;5031670;28;1239;-67
2023/01/23 13:34:55;;;;;;;;;;;;;;;;;;5031809;28;1243;-67
2023/01/23 13:37:29;;;;;;;;;;;;;;;;;;5029866;28;1213;-66
2023/01/23 13:40:11;;;;;;;;;;;;;;;;;;5032892;28;853;-67
2023/01/23 13:42:36;;;;;;;;;;;;;;;;;;5033188;28;958;-67
2023/01/23 13:45:14;;;;;;;;;;;;;;;;;;5033846;28;1030;-67
2023/01/23 13:50:35;;;;;;;;;;;;;;;;;;5034037;28;1968;-67
2023/01/23 13:58:40;;;;;;;;;;;;;;;;;;5034743;28;1110;-71
2023/01/23 14:06:44;;;;;;;;;;;;;;;;;;5034808;28;815;-70
2023/01/23 14:09:23;;;;;;;;;;;;;;;;;;5016179;28;1902;-71
2023/01/23 14:11:55;;;;;;;;;;;;;;;;;;5033917;28;1006;-69
2023/01/23 14:17:05;;;;;;;;;;;;;;;;;;5033746;28;707;-69
2023/01/23 14:19:31;;;;;;;;;;;;;;;;;;5033441;28;978;-70
2023/01/23 14:21:58;;;;;;;;;;;;;;;;;;5033185;28;864;-69
2023/01/23 14:24:29;;;;;;;;;;;;;;;;;;5031714;28;1390;-69
2023/01/23 14:26:59;;;;;;;;;;;;;;;;;;5030939;28;1354;-69
2023/01/23 14:29:26;;;;;;;;;;;;;;;;;;5031455;28;1914;-68
2023/01/23 14:31:52;;;;;;;;;;;;;;;;;;5033062;28;837;-69
2023/01/23 14:34:19;;;;;;;;;;;;;;;;;;5031844;28;1298;-69
2023/01/23 14:36:45;;;;;;;;;;;;;;;;;;5032884;28;1133;-69
2023/01/23 14:39:21;;;;;;;;;;;;;;;;;;5033060;28;829;-70
2023/01/23 14:41:47;;;;;;;;;;;;;;;;;;5031361;28;1041;-70
2023/01/23 14:44:20;;;;;;;;;;;;;;;;;;5032930;28;889;-69
2023/01/23 14:46:45;;;;;;;;;;;;;;;;;;5031660;28;1370;-69
2023/01/23 14:49:13;;;;;;;;;;;;;;;;;;5030820;28;1893;-69
2023/01/23 14:51:38;;;;;;;;;;;;;;;;;;5032563;28;1046;-69
2023/01/23 14:54:24;;;;;;;;;;;;;;;;;;5032595;28;778;-69
2023/01/23 14:56:49;;;;;;;;;;;;;;;;;;5032404;28;1055;-69
2023/01/23 14:59:25;;;;;;;;;;;;;;;;;;5031750;28;1339;-69
2023/01/23 15:01:57;;;;;;;;;;;;;;;;;;5031842;28;1168;-68
2023/01/23 15:04:23;;;;;;;;;;;;;;;;;;5015025;28;1196;-69
2023/01/23 15:06:50;;;;;;;;;;;;;;;;;;5031132;28;1204;-70
2023/01/23 15:09:16;;;;;;;;;;;;;;;;;;5030953;28;1907;-70
2023/01/23 15:11:42;;;;;;;;;;;;;;;;;;5030902;28;1437;-70
2023/01/23 15:14:21;;;;;;;;;;;;;;;;;;5031191;28;1276;-69
2023/01/23 15:16:46;;;;;;;;;;;;;;;;;;5031328;28;1437;-69
2023/01/23 15:19:18;;;;;;;;;;;;;;;;;;5014816;28;1388;-69
2023/01/23 15:21:43;;;;;;;;;;;;;;;;;;5032989;28;888;-68
2023/01/23 15:24:09;;;;;;;;;;;;;;;;;;5014791;28;1319;-69
2023/01/23 15:26:38;;;;;;;;;;;;;;;;;;5031619;28;1335;-70
2023/01/23 15:29:07;;;;;;;;;;;;;;;;;;5032315;28;1910;-69
2023/01/23 15:31:38;;;;;;;;;;;;;;;;;;5031515;28;1271;-69
2023/01/23 15:34:17;;;;;;;;;;;;;;;;;;5031448;28;1307;-68
2023/01/23 15:36:48;;;;;;;;;;;;;;;;;;5030911;28;1232;-69
2023/01/23 15:39:25;;;;;;;;;;;;;;;;;;5032336;28;919;-69
2023/01/23 15:41:51;;;;;;;;;;;;;;;;;;5032180;28;979;-68
2023/01/23 15:44:18;;;;;;;;;;;;;;;;;;5030186;28;1492;-69
2023/01/23 15:46:43;;;;;;;;;;;;;;;;;;5031691;28;868;-72
2023/01/23 15:49:09;;;;;;;;;;;;;;;;;;5030432;28;1914;-72
2023/01/23 15:51:35;;;;;;;;;;;;;;;;;;5013469;28;1440;-71
2023/01/23 15:54:00;;;;;;;;;;;;;;;;;;5031545;28;880;-71
2023/01/23 15:56:28;;;;;;;;;;;;;;;;;;5030128;28;866;-70
2023/01/23 15:58:53;;;;;;;;;;;;;;;;;;5030038;28;1308;-70
2023/01/23 16:01:18;;;;;;;;;;;;;;;;;;5014213;28;1204;-69
2023/01/23 16:04:03;;;;;;;;;;;;;;;;;;5032237;28;1138;-69
2023/01/23 16:06:29;;;;;;;;;;;;;;;;;;5017296;28;1399;-69
2023/01/23 16:08:54;;;;;;;;;;;;;;;;;;5035389;28;1902;-69
2023/01/23 16:11:20;;;;;;;;;;;;;;;;;;5035571;28;838;-71
2023/01/23 16:13:45;;;;;;;;;;;;;;;;;;5033837;28;1194;-69
2023/01/23 16:16:11;;;;;;;;;;;;;;;;;;5035333;28;1375;-70
2023/01/23 16:18:37;;;;;;;;;;;;;;;;;;5033611;28;1313;-69
2023/01/23 16:21:02;;;;;;;;;;;;;;;;;;5034023;28;1333;-69
2023/01/23 16:23:27;;;;;;;;;;;;;;;;;;5035550;28;833;-71
2023/01/23 16:25:53;;;;;;;;;;;;;;;;;;5036246;28;872;-72
2023/01/23 16:28:19;;;;;;;;;;;;;;;;;;5034106;28;1961;-71
2023/01/23 16:30:45;;;;;;;;;;;;;;;;;;5035102;28;1127;-71
2023/01/23 16:33:11;;;;;;;;;;;;;;;;;;5035253;28;833;-70
2023/01/23 16:35:37;;;;;;;;;;;;;;;;;;5034097;28;1334;-68
2023/01/23 16:38:02;;;;;;;;;;;;;;;;;;5034206;28;932;-70
2023/01/23 16:40:31;;;;;;;;;;;;;;;;;;5033678;28;1295;-70
2023/01/23 16:42:57;;;;;;;;;;;;;;;;;;5035179;28;946;-71
2023/01/23 16:45:23;;;;;;;;;;;;;;;;;;5034799;28;857;-70
2023/01/23 16:47:49;;;;;;;;;;;;;;;;;;5034775;28;920;-69
2023/01/23 16:50:15;;;;;;;;;;;;;;;;;;5034359;28;1898;-70
2023/01/23 16:52:43;;;;;;;;;;;;;;;;;;5031604;28;1313;-69
2023/01/23 16:55:35;;;;;;;;;;;;;;;;;;5033146;28;892;-71
2023/01/23 16:58:01;;;;;;;;;;;;;;;;;;5030048;28;1211;-69
2023/01/23 17:00:27;;;;;;;;;;;;;;;;;;5033932;28;1136;-70
2023/01/23 17:02:54;;;;;;;;;;;;;;;;;;5035016;28;905;-71
2023/01/23 17:05:20;;;;;;;;;;;;;;;;;;5035032;28;999;-71
2023/01/23 17:07:47;;;;;;;;;;;;;;;;;;5017122;28;1296;-70
2023/01/23 17:10:19;;;;;;;;;;;;;;;;;;5034969;28;1977;-70
2023/01/23 17:12:46;;;;;;;;;;;;;;;;;;5033546;28;923;-71
2023/01/23 17:15:18;;;;;;;;;;;;;;;;;;5016710;28;1330;-71
2023/01/23 17:17:46;;;;;;;;;;;;;;;;;;5034744;28;821;-71
2023/01/23 17:20:12;;;;;;;;;;;;;;;;;;5016754;28;1358;-71
2023/01/23 17:22:39;;;;;;;;;;;;;;;;;;5034834;28;910;-70
2023/01/23 17:25:11;;;;;;;;;;;;;;;;;;5033056;28;1141;-70
2023/01/23 17:27:36;;;;;;;;;;;;;;;;;;5033629;28;1152;-69
2023/01/23 17:30:01;;;;;;;;;;;;;;;;;;5015700;28;1906;-70
2023/01/23 17:32:29;;;;;;;;;;;;;;;;;;5034547;28;761;-71
2023/01/23 17:34:56;;;;;;;;;;;;;;;;;;5032954;28;1350;-69
2023/01/23 17:37:21;;;;;;;;;;;;;;;;;;5034049;28;876;-70
2023/01/23 17:39:47;;;;;;;;;;;;;;;;;;5034111;28;805;-70
2023/01/23 17:42:13;;;;;;;;;;;;;;;;;;5016178;28;1397;-71
2023/01/23 17:44:38;;;;;;;;;;;;;;;;;;5034084;28;1046;-68
2023/01/23 17:47:04;;;;;;;;;;;;;;;;;;5031832;28;1202;-69